createdAt,value
2019-05-06T00:00:14.009Z,4.21
2019-05-06T00:02:43.567Z,4.18
2019-05-06T00:05:14.314Z,4.12
2019-05-06T00:07:44.538Z,4.11
2019-05-06T00:10:27.617Z,4.03
2019-05-06T00:12:56.680Z,3.96
2019-05-06T00:15:26.453Z,3.96
2019-05-06T00:17:55.195Z,3.95
2019-05-06T00:20:24.339Z,3.87
2019-05-06T00:22:54.821Z,3.75
2019-05-06T00:25:36.877Z,3.66
2019-05-06T00:28:09.466Z,3.61
2019-05-06T00:30:39.702Z,3.50
2019-05-06T00:33:08.111Z,3.54
2019-05-06T00:35:36.560Z,3.55
2019-05-06T00:38:04.941Z,3.57
2019-05-06T00:40:37.600Z,3.46
2019-05-06T00:43:07.650Z,3.52
2019-05-06T00:45:36.128Z,3.71
2019-05-06T00:48:04.920Z,3.55
2019-05-06T00:50:34.853Z,3.56
2019-05-06T00:53:05.085Z,3.49
2019-05-06T00:55:33.872Z,3.43
2019-05-06T00:58:04.096Z,3.48
2019-05-06T01:00:34.488Z,3.43
2019-05-06T01:03:04.297Z,3.41
2019-05-06T01:05:33.789Z,3.44
2019-05-06T01:08:04.083Z,3.47
2019-05-06T01:10:34.408Z,3.42
2019-05-06T01:13:07.411Z,3.37
2019-05-06T01:15:35.897Z,3.33
2019-05-06T01:18:04.943Z,3.23
2019-05-06T01:20:34.018Z,3.16
2019-05-06T01:23:03.775Z,3.19
2019-05-06T01:25:34.463Z,3.20
2019-05-06T01:28:04.283Z,3.30
2019-05-06T01:30:33.686Z,3.32
2019-05-06T01:33:03.951Z,3.27
2019-05-06T01:35:32.489Z,3.21
2019-05-06T01:38:20.988Z,3.11
2019-05-06T01:40:54.647Z,3.09
2019-05-06T01:43:40.082Z,3.05
2019-05-06T01:46:08.575Z,3.00
2019-05-06T01:48:48.985Z,3.02
2019-05-06T01:51:19.417Z,3.01
2019-05-06T01:53:48.795Z,3.04
2019-05-06T01:56:17.629Z,3.02
2019-05-06T01:58:46.502Z,3.07
2019-05-06T02:01:15.035Z,3.02
2019-05-06T02:03:44.230Z,3.02
2019-05-06T02:06:14.072Z,2.94
2019-05-06T02:08:44.843Z,2.96
2019-05-06T02:11:14.872Z,2.96
2019-05-06T02:13:44.216Z,3.03
2019-05-06T02:16:14.542Z,3.00
2019-05-06T02:18:44.899Z,2.93
2019-05-06T02:21:18.464Z,2.96
2019-05-06T02:23:48.533Z,2.91
2019-05-06T02:26:16.988Z,2.94
2019-05-06T02:28:47.034Z,2.79
2019-05-06T02:31:35.377Z,2.81
2019-05-06T02:34:07.874Z,2.83
2019-05-06T02:36:37.928Z,2.71
2019-05-06T02:39:07.170Z,2.71
2019-05-06T02:41:35.682Z,2.63
2019-05-06T02:44:04.165Z,2.63
2019-05-06T02:46:33.928Z,2.68
2019-05-06T02:49:15.827Z,2.70
2019-05-06T02:51:44.436Z,2.64
2019-05-06T02:54:13.570Z,2.74
2019-05-06T02:56:43.508Z,2.84
2019-05-06T02:59:12.896Z,2.82
2019-05-06T03:01:43.248Z,2.87
2019-05-06T03:04:13.201Z,2.89
2019-05-06T03:06:44.531Z,2.93
2019-05-06T03:09:13.458Z,2.86
2019-05-06T03:11:43.867Z,2.83
2019-05-06T03:14:13.988Z,2.80
2019-05-06T03:16:43.950Z,2.76
2019-05-06T03:19:13.449Z,2.87
2019-05-06T03:21:46.486Z,2.84
2019-05-06T03:24:19.424Z,2.60
2019-05-06T03:26:49.491Z,2.38
2019-05-06T03:29:17.877Z,2.34
2019-05-06T03:31:46.691Z,2.39
2019-05-06T03:34:35.241Z,2.44
2019-05-06T03:36:48.381Z,2.52
2019-05-06T03:39:15.676Z,2.53
2019-05-06T03:41:44.097Z,2.57
2019-05-06T03:44:16.318Z,2.59
2019-05-06T03:46:50.307Z,2.62
2019-05-06T03:49:19.382Z,2.48
2019-05-06T03:51:47.789Z,2.49
2019-05-06T03:54:17.966Z,2.46
2019-05-06T03:56:46.921Z,2.47
2019-05-06T03:59:16.868Z,2.49
2019-05-06T04:01:45.281Z,2.43
2019-05-06T04:04:13.736Z,2.41
2019-05-06T04:06:43.713Z,2.37
2019-05-06T04:09:13.252Z,2.33
2019-05-06T04:11:43.523Z,2.38
2019-05-06T04:14:13.912Z,2.38
2019-05-06T04:16:44.479Z,2.33
2019-05-06T04:19:14.670Z,2.30
2019-05-06T04:21:47.695Z,2.31
2019-05-06T04:24:17.882Z,2.33
2019-05-06T04:26:47.955Z,2.43
2019-05-06T04:29:16.511Z,2.47
2019-05-06T04:31:45.109Z,2.68
2019-05-06T04:34:19.167Z,2.81
2019-05-06T04:36:44.314Z,2.78
2019-05-06T04:39:13.380Z,2.80
2019-05-06T04:41:43.263Z,2.78
2019-05-06T04:44:13.847Z,2.69
2019-05-06T04:46:44.366Z,2.75
2019-05-06T04:49:15.055Z,2.67
2019-05-06T04:51:43.212Z,2.70
2019-05-06T04:54:13.432Z,2.74
2019-05-06T04:56:43.753Z,2.83
2019-05-06T04:59:13.960Z,3.01
2019-05-06T05:01:45.675Z,3.16
2019-05-06T05:04:24.536Z,3.29
2019-05-06T05:06:43.481Z,3.12
2019-05-06T05:09:16.967Z,3.11
2019-05-06T05:11:44.972Z,3.11
2019-05-06T05:14:15.108Z,3.11
2019-05-06T05:16:45.295Z,3.16
2019-05-06T05:19:15.222Z,3.25
2019-05-06T05:21:43.832Z,3.25
2019-05-06T05:24:12.478Z,3.26
2019-05-06T05:26:45.119Z,3.24
2019-05-06T05:29:12.394Z,3.29
2019-05-06T05:31:43.546Z,3.40
2019-05-06T05:34:12.740Z,3.53
2019-05-06T05:36:42.620Z,3.66
2019-05-06T05:39:12.497Z,3.77
2019-05-06T05:41:42.917Z,3.88
2019-05-06T05:44:19.213Z,3.97
2019-05-06T05:46:47.611Z,4.03
2019-05-06T05:49:20.163Z,4.11
2019-05-06T05:51:48.061Z,4.15
2019-05-06T05:54:16.547Z,4.13
2019-05-06T05:56:45.108Z,4.06
2019-05-06T05:59:13.573Z,4.08
2019-05-06T06:01:43.424Z,4.18
2019-05-06T06:04:13.002Z,4.25
2019-05-06T06:06:42.368Z,4.31
2019-05-06T06:09:12.701Z,4.36
2019-05-06T06:11:49.418Z,4.44
2019-05-06T06:14:28.911Z,4.52
2019-05-06T06:17:02.493Z,4.61
2019-05-06T06:19:32.930Z,4.63
2019-05-06T06:22:02.981Z,4.70
2019-05-06T06:24:33.337Z,4.68
2019-05-06T06:27:03.079Z,4.69
2019-05-06T06:29:32.343Z,4.70
2019-05-06T06:32:05.511Z,4.78
2019-05-06T06:34:52.137Z,4.90
2019-05-06T06:37:28.640Z,4.96
2019-05-06T06:39:57.796Z,5.05
2019-05-06T06:42:26.448Z,5.10
2019-05-06T06:44:54.890Z,5.18
2019-05-06T06:47:23.407Z,5.21
2019-05-06T06:49:53.471Z,5.24
2019-05-06T06:52:23.051Z,5.27
2019-05-06T06:54:52.700Z,5.32
2019-05-06T06:57:23.040Z,5.41
2019-05-06T07:00:04.134Z,5.49
2019-05-06T07:02:43.239Z,5.59
2019-05-06T07:05:24.450Z,5.56
2019-05-06T07:07:47.294Z,5.43
2019-05-06T07:10:33.065Z,5.38
2019-05-06T07:13:02.945Z,5.40
2019-05-06T07:15:33.583Z,5.45
2019-05-06T07:18:02.512Z,5.51
2019-05-06T07:20:35.440Z,5.56
2019-05-06T07:23:05.550Z,5.60
2019-05-06T07:25:33.966Z,5.58
2019-05-06T07:28:03.021Z,5.62
2019-05-06T07:30:33.084Z,5.68
2019-05-06T07:33:03.605Z,5.78
2019-05-06T07:35:40.782Z,5.82
2019-05-06T07:38:02.455Z,5.89
2019-05-06T07:40:32.659Z,5.98
2019-05-06T07:43:02.958Z,6.04
2019-05-06T07:45:33.062Z,6.13
2019-05-06T07:48:03.710Z,6.14
2019-05-06T07:50:33.228Z,6.11
2019-05-06T07:53:08.356Z,6.15
2019-05-06T07:55:37.834Z,6.14
2019-05-06T07:58:06.489Z,6.18
2019-05-06T08:00:35.159Z,6.18
2019-05-06T08:03:03.640Z,6.14
2019-05-06T08:05:32.594Z,6.09
2019-05-06T08:08:03.469Z,6.08
2019-05-06T08:10:33.238Z,6.06
2019-05-06T08:13:02.708Z,6.04
2019-05-06T08:15:32.652Z,6.05
2019-05-06T08:18:03.316Z,6.02
2019-05-06T08:20:40.101Z,6.10
2019-05-06T08:23:12.607Z,6.08
2019-05-06T08:25:45.694Z,6.14
2019-05-06T08:28:14.168Z,6.21
2019-05-06T08:30:43.268Z,6.23
2019-05-06T08:33:12.896Z,6.24
2019-05-06T08:35:42.542Z,6.27
2019-05-06T08:38:12.206Z,6.35
2019-05-06T08:40:42.871Z,6.44
2019-05-06T08:43:13.119Z,6.54
2019-05-06T08:45:42.089Z,6.66
2019-05-06T08:48:12.850Z,6.67
2019-05-06T08:50:55.111Z,6.69
2019-05-06T08:53:32.931Z,6.78
2019-05-06T08:56:03.006Z,6.87
2019-05-06T08:58:47.886Z,7.00
2019-05-06T09:01:22.474Z,7.14
2019-05-06T09:04:06.327Z,7.12
2019-05-06T09:06:29.316Z,7.04
2019-05-06T09:08:52.171Z,7.22
2019-05-06T09:11:23.695Z,7.33
2019-05-06T09:13:52.120Z,7.45
2019-05-06T09:16:22.317Z,7.59
2019-05-06T09:18:53.230Z,7.61
2019-05-06T09:21:22.620Z,7.54
2019-05-06T09:23:53.081Z,7.53
2019-05-06T09:26:22.999Z,7.50
2019-05-06T09:28:56.024Z,7.50
2019-05-06T09:31:29.074Z,7.49
2019-05-06T09:34:02.724Z,7.48
2019-05-06T09:36:43.605Z,7.51
2019-05-06T09:39:02.302Z,7.47
2019-05-06T09:41:32.493Z,7.43
2019-05-06T09:44:03.073Z,7.50
2019-05-06T09:46:32.191Z,7.65
2019-05-06T09:49:17.328Z,7.74
2019-05-06T09:51:45.726Z,7.90
2019-05-06T09:54:15.925Z,7.88
2019-05-06T09:56:54.872Z,7.92
2019-05-06T09:59:23.387Z,7.93
2019-05-06T10:01:52.838Z,8.03
2019-05-06T10:04:21.491Z,8.10
2019-05-06T10:06:57.313Z,8.04
2019-05-06T10:09:20.198Z,8.14
2019-05-06T10:11:48.689Z,8.17
2019-05-06T10:14:17.208Z,8.21
2019-05-06T10:16:45.726Z,8.15
2019-05-06T10:19:14.200Z,8.13
2019-05-06T10:21:42.929Z,8.14
2019-05-06T10:24:11.512Z,8.25
2019-05-06T10:26:44.709Z,8.33
2019-05-06T10:29:22.292Z,8.42
2019-05-06T10:31:52.567Z,8.56
2019-05-06T10:34:22.181Z,8.57
2019-05-06T10:37:19.712Z,8.59
2019-05-06T10:40:03.489Z,8.57
2019-05-06T10:42:42.886Z,8.55
2019-05-06T10:45:19.784Z,8.55
2019-05-06T10:47:48.202Z,8.55
2019-05-06T10:50:16.702Z,8.63
2019-05-06T10:53:02.973Z,8.61
2019-05-06T10:55:32.457Z,8.64
2019-05-06T10:58:02.676Z,8.57
2019-05-06T11:00:33.187Z,8.44
2019-05-06T11:03:14.809Z,8.36
2019-05-06T11:05:43.268Z,8.35
2019-05-06T11:08:12.089Z,8.21
2019-05-06T11:10:44.104Z,8.06
2019-05-06T11:13:12.822Z,7.95
2019-05-06T11:15:43.107Z,7.84
2019-05-06T11:18:13.570Z,7.81
2019-05-06T11:20:43.744Z,7.84
2019-05-06T11:23:13.918Z,7.88
2019-05-06T11:25:43.221Z,7.91
2019-05-06T11:28:29.997Z,7.88
2019-05-06T11:31:02.499Z,7.91
2019-05-06T11:33:32.907Z,7.96
2019-05-06T11:36:03.271Z,8.02
2019-05-06T11:38:32.228Z,8.12
2019-05-06T11:41:00.883Z,8.22
2019-05-06T11:43:29.312Z,8.26
2019-05-06T11:45:57.712Z,8.34
2019-05-06T11:48:26.125Z,8.40
2019-05-06T11:50:56.194Z,8.49
2019-05-06T11:53:24.603Z,8.50
2019-05-06T11:55:54.813Z,8.55
2019-05-06T11:58:42.478Z,8.61
2019-05-06T12:01:23.923Z,8.70
2019-05-06T12:03:52.337Z,8.78
2019-05-06T12:06:22.722Z,8.73
2019-05-06T12:08:52.465Z,8.62
2019-05-06T12:11:23.462Z,8.63
2019-05-06T12:13:53.200Z,7.18
2019-05-06T12:16:26.162Z,8.51
2019-05-06T12:18:52.920Z,8.53
2019-05-06T12:21:23.251Z,8.60
2019-05-06T12:23:53.736Z,8.62
2019-05-06T12:26:21.930Z,8.52
2019-05-06T12:28:52.913Z,8.53
2019-05-06T12:31:23.097Z,8.51
2019-05-06T12:33:53.021Z,8.54
2019-05-06T12:36:21.954Z,8.58
2019-05-06T12:39:07.894Z,8.59
2019-05-06T12:41:38.015Z,8.66
2019-05-06T12:44:06.409Z,8.68
2019-05-06T12:46:36.586Z,8.76
2019-05-06T12:49:05.830Z,8.82
2019-05-06T12:51:34.317Z,8.90
2019-05-06T12:54:03.492Z,8.87
2019-05-06T12:56:32.321Z,8.82
2019-05-06T12:59:02.056Z,8.87
2019-05-06T13:01:33.465Z,8.86
2019-05-06T13:04:04.143Z,9.06
2019-05-06T13:06:33.473Z,9.22
2019-05-06T13:09:04.923Z,9.26
2019-05-06T13:11:31.619Z,9.11
2019-05-06T13:14:00.998Z,9.01
2019-05-06T13:16:30.253Z,8.96
2019-05-06T13:18:58.674Z,8.89
2019-05-06T13:21:27.053Z,8.97
2019-05-06T13:23:57.137Z,8.95
2019-05-06T13:26:25.550Z,8.95
2019-05-06T13:28:55.651Z,8.98
2019-05-06T13:31:25.552Z,9.09
2019-05-06T13:33:59.133Z,9.04
2019-05-06T13:36:27.561Z,9.15
2019-05-06T13:39:09.438Z,9.28
2019-05-06T13:41:26.222Z,9.44
2019-05-06T13:44:05.260Z,9.65
2019-05-06T13:46:35.427Z,10.07
2019-05-06T13:49:05.524Z,9.93
2019-05-06T13:51:42.909Z,9.98
2019-05-06T13:54:15.448Z,9.89
2019-05-06T13:56:42.511Z,9.76
2019-05-06T13:59:12.839Z,9.86
2019-05-06T14:01:44.049Z,9.87
2019-05-06T14:04:14.479Z,9.85
2019-05-06T14:06:43.383Z,9.88
2019-05-06T14:09:28.013Z,9.82
2019-05-06T14:11:42.139Z,9.77
2019-05-06T14:14:12.581Z,9.77
2019-05-06T14:16:42.623Z,9.79
2019-05-06T14:19:12.986Z,9.85
2019-05-06T14:21:43.153Z,9.92
2019-05-06T14:24:13.301Z,10.05
2019-05-06T14:26:46.117Z,10.29
2019-05-06T14:29:23.403Z,10.50
2019-05-06T14:31:53.652Z,10.63
2019-05-06T14:34:23.033Z,10.50
2019-05-06T14:36:53.386Z,10.34
2019-05-06T14:39:47.474Z,10.27
2019-05-06T14:41:59.422Z,10.34
2019-05-06T14:44:27.896Z,10.65
2019-05-06T14:46:58.035Z,10.62
2019-05-06T14:49:26.469Z,10.49
2019-05-06T14:51:54.884Z,10.37
2019-05-06T14:54:23.334Z,10.28
2019-05-06T14:56:53.512Z,10.26
2019-05-06T14:59:23.407Z,10.22
2019-05-06T15:01:53.612Z,10.16
2019-05-06T15:04:22.993Z,10.10
2019-05-06T15:06:52.928Z,10.04
2019-05-06T15:09:22.603Z,9.99
2019-05-06T15:11:51.287Z,9.92
2019-05-06T15:14:19.695Z,9.89
2019-05-06T15:16:48.126Z,9.82
2019-05-06T15:19:16.609Z,9.81
2019-05-06T15:21:45.118Z,9.72
2019-05-06T15:24:14.619Z,9.63
2019-05-06T15:26:43.107Z,9.31
2019-05-06T15:29:12.695Z,9.00
2019-05-06T15:31:59.366Z,8.76
2019-05-06T15:34:29.442Z,8.51
2019-05-06T15:37:02.228Z,8.17
2019-05-06T15:39:32.195Z,8.08
2019-05-06T15:41:59.942Z,7.99
2019-05-06T15:44:31.647Z,7.88
2019-05-06T15:46:58.902Z,7.66
2019-05-06T15:49:27.336Z,7.70
2019-05-06T15:51:55.833Z,7.68
2019-05-06T15:54:24.276Z,7.65
2019-05-06T15:56:53.370Z,7.56
2019-05-06T15:59:22.922Z,6.42
2019-05-06T16:01:53.158Z,7.63
2019-05-06T16:04:22.921Z,7.61
2019-05-06T16:06:52.982Z,7.60
2019-05-06T16:09:23.437Z,7.70
2019-05-06T16:11:53.443Z,7.80
2019-05-06T16:14:22.955Z,7.78
2019-05-06T16:16:52.744Z,7.65
2019-05-06T16:19:22.826Z,7.65
2019-05-06T16:21:52.380Z,7.65
2019-05-06T16:24:22.758Z,7.73
2019-05-06T16:26:52.699Z,7.88
2019-05-06T16:29:22.850Z,7.92
2019-05-06T16:31:51.914Z,7.96
2019-05-06T16:34:22.664Z,8.04
2019-05-06T16:36:50.626Z,8.05
2019-05-06T16:39:19.025Z,8.10
2019-05-06T16:41:47.447Z,8.13
2019-05-06T16:44:15.932Z,6.03
2019-05-06T16:46:44.346Z,8.09
2019-05-06T16:49:14.206Z,8.03
2019-05-06T16:51:44.205Z,8.06
2019-05-06T16:54:12.839Z,8.16
2019-05-06T16:56:44.645Z,8.19
2019-05-06T16:59:13.099Z,8.23
2019-05-06T17:01:43.181Z,8.20
2019-05-06T17:04:15.991Z,8.14
2019-05-06T17:06:52.295Z,8.08
2019-05-06T17:09:27.046Z,8.14
2019-05-06T17:11:51.310Z,8.17
2019-05-06T17:14:19.829Z,8.14
2019-05-06T17:16:48.281Z,8.07
2019-05-06T17:19:16.749Z,8.10
2019-05-06T17:21:48.170Z,8.15
2019-05-06T17:24:15.314Z,8.12
2019-05-06T17:26:43.797Z,8.09
2019-05-06T17:29:22.869Z,8.08
2019-05-06T17:31:52.930Z,8.12
2019-05-06T17:34:22.970Z,8.15
2019-05-06T17:36:53.676Z,8.15
2019-05-06T17:39:22.661Z,8.07
2019-05-06T17:41:52.199Z,8.04
2019-05-06T17:44:22.843Z,8.03
2019-05-06T17:47:09.475Z,8.05
2019-05-06T17:49:39.062Z,8.06
2019-05-06T17:52:22.298Z,8.08
2019-05-06T17:54:52.826Z,8.09
2019-05-06T17:57:22.382Z,8.11
2019-05-06T17:59:52.785Z,8.10
2019-05-06T18:02:22.942Z,8.09
2019-05-06T18:04:53.247Z,8.04
2019-05-06T18:07:22.274Z,8.02
2019-05-06T18:09:52.200Z,8.05
2019-05-06T18:12:22.602Z,8.02
2019-05-06T18:14:53.149Z,8.03
2019-05-06T18:17:22.011Z,8.05
2019-05-06T18:19:50.727Z,8.02
2019-05-06T18:22:19.259Z,8.03
2019-05-06T18:24:48.059Z,8.01
2019-05-06T18:27:16.834Z,7.98
2019-05-06T18:29:45.350Z,8.00
2019-05-06T18:32:13.764Z,7.96
2019-05-06T18:34:42.267Z,7.96
2019-05-06T18:37:12.750Z,7.91
2019-05-06T18:39:42.518Z,7.80
2019-05-06T18:42:18.998Z,7.80
2019-05-06T18:44:42.705Z,7.82
2019-05-06T18:47:12.228Z,7.85
2019-05-06T18:49:42.614Z,7.85
2019-05-06T18:52:13.285Z,7.84
2019-05-06T18:54:42.890Z,7.81
2019-05-06T18:57:12.982Z,7.72
2019-05-06T18:59:42.481Z,7.77
2019-05-06T19:02:13.216Z,7.77
2019-05-06T19:04:45.706Z,7.75
2019-05-06T19:07:17.003Z,7.69
2019-05-06T19:09:52.389Z,7.64
2019-05-06T19:12:30.278Z,7.69
2019-05-06T19:14:52.600Z,7.71
2019-05-06T19:17:22.537Z,7.68
2019-05-06T19:19:52.048Z,7.70
2019-05-06T19:22:22.377Z,7.67
2019-05-06T19:24:52.056Z,7.66
2019-05-06T19:27:24.672Z,7.63
2019-05-06T19:29:54.363Z,7.58
2019-05-06T19:32:22.560Z,7.55
2019-05-06T19:34:53.009Z,7.59
2019-05-06T19:37:23.326Z,7.59
2019-05-06T19:39:52.469Z,7.56
2019-05-06T19:42:22.452Z,7.58
2019-05-06T19:44:52.786Z,7.61
2019-05-06T19:47:21.197Z,7.62
2019-05-06T19:49:49.772Z,7.58
2019-05-06T19:52:18.202Z,7.52
2019-05-06T19:54:46.722Z,7.51
2019-05-06T19:57:15.993Z,7.51
2019-05-06T19:59:44.616Z,7.49
2019-05-06T20:02:13.204Z,7.49
2019-05-06T20:04:44.334Z,7.46
2019-05-06T20:07:22.721Z,7.47
2019-05-06T20:10:08.625Z,7.48
2019-05-06T20:12:38.660Z,7.46
2019-05-06T20:15:26.140Z,7.43
2019-05-06T20:17:54.555Z,7.43
2019-05-06T20:20:23.043Z,7.40
2019-05-06T20:22:51.458Z,7.39
2019-05-06T20:25:21.921Z,7.35
2019-05-06T20:27:50.116Z,7.36
2019-05-06T20:30:19.105Z,7.36
2019-05-06T20:32:47.524Z,7.37
2019-05-06T20:35:15.990Z,7.32
2019-05-06T20:37:44.411Z,7.33
2019-05-06T20:40:14.747Z,7.31
2019-05-06T20:42:43.204Z,7.27
2019-05-06T20:45:12.895Z,7.24
2019-05-06T20:47:42.914Z,7.21
2019-05-06T20:50:13.254Z,7.20
2019-05-06T20:52:42.515Z,7.19
2019-05-06T20:55:15.217Z,7.10
2019-05-06T20:57:42.905Z,7.10
2019-05-06T21:00:12.855Z,7.14
2019-05-06T21:02:42.603Z,7.09
2019-05-06T21:05:13.863Z,7.10
2019-05-06T21:07:43.234Z,7.03
2019-05-06T21:10:12.713Z,7.01
2019-05-06T21:12:42.251Z,6.96
2019-05-06T21:15:13.315Z,6.89
2019-05-06T21:17:42.004Z,6.90
2019-05-06T21:20:10.857Z,6.93
2019-05-06T21:22:39.268Z,6.91
2019-05-06T21:25:08.502Z,6.90
2019-05-06T21:27:37.110Z,6.86
2019-05-06T21:30:09.098Z,6.81
2019-05-06T21:32:37.669Z,6.64
2019-05-06T21:35:06.262Z,6.60
2019-05-06T21:37:34.664Z,6.54
2019-05-06T21:40:03.203Z,6.56
2019-05-06T21:42:32.545Z,6.50
2019-05-06T21:45:03.168Z,6.51
2019-05-06T21:47:32.548Z,6.55
2019-05-06T21:50:01.082Z,6.53
2019-05-06T21:52:39.312Z,6.58
2019-05-06T21:54:59.666Z,6.60
2019-05-06T21:57:28.095Z,6.63
2019-05-06T21:59:56.492Z,6.54
2019-05-06T22:02:24.964Z,6.56
2019-05-06T22:04:55.657Z,6.62
2019-05-06T22:07:23.569Z,6.60
2019-05-06T22:09:52.771Z,6.62
2019-05-06T22:12:24.350Z,6.54
2019-05-06T22:14:53.027Z,6.51
2019-05-06T22:17:22.625Z,6.46
2019-05-06T22:19:52.455Z,6.44
2019-05-06T22:22:23.481Z,6.39
2019-05-06T22:24:55.658Z,6.46
2019-05-06T22:27:22.642Z,6.55
2019-05-06T22:29:52.222Z,6.54
2019-05-06T22:32:22.938Z,6.54
2019-05-06T22:34:50.911Z,6.54
2019-05-06T22:37:19.409Z,6.42
2019-05-06T22:39:47.837Z,6.38
2019-05-06T22:42:16.280Z,6.27
2019-05-06T22:44:44.658Z,6.31
2019-05-06T22:47:13.152Z,6.38
2019-05-06T22:49:41.608Z,6.36
2019-05-06T22:52:12.437Z,6.31
2019-05-06T22:54:40.325Z,6.33
2019-05-06T22:57:08.807Z,6.31
2019-05-06T22:59:37.210Z,6.40
2019-05-06T23:02:10.079Z,6.42
2019-05-06T23:04:40.205Z,6.38
2019-05-06T23:07:08.642Z,6.41
2019-05-06T23:09:37.063Z,6.44
2019-05-06T23:12:05.617Z,6.46
2019-05-06T23:14:36.897Z,6.41
2019-05-06T23:17:04.348Z,6.39
2019-05-06T23:19:32.781Z,6.41
2019-05-06T23:22:04.020Z,6.48
2019-05-06T23:24:32.198Z,6.52
2019-05-06T23:27:02.403Z,6.53
2019-05-06T23:29:30.921Z,6.34
2019-05-06T23:31:59.510Z,6.32
2019-05-06T23:34:27.907Z,6.21
2019-05-06T23:36:59.364Z,6.20
2019-05-06T23:40:05.905Z,6.22
2019-05-06T23:43:12.610Z,6.20
2019-05-06T23:46:17.068Z,6.24
2019-05-06T23:49:22.316Z,6.24
2019-05-06T23:52:27.031Z,6.26
2019-05-06T23:55:31.945Z,6.24
2019-05-06T23:57:59.188Z,6.21
